createdAt,value
2022-09-24T00:01:41.082Z,99.90
2022-09-24T00:04:12.072Z,99.90
2022-09-24T00:06:48.963Z,99.90
2022-09-24T00:09:21.784Z,99.90
2022-09-24T00:11:51.224Z,99.90
2022-09-24T00:14:19.047Z,99.90
2022-09-24T00:16:46.807Z,99.90
2022-09-24T00:19:14.778Z,99.90
2022-09-24T00:21:43.126Z,99.90
2022-09-24T00:24:36.870Z,99.90
2022-09-24T00:27:06.202Z,99.90
2022-09-24T00:29:35.833Z,99.90
2022-09-24T00:32:05.110Z,99.90
2022-09-24T00:34:32.823Z,99.90
2022-09-24T00:37:00.329Z,99.90
2022-09-24T00:39:28.220Z,99.90
2022-09-24T00:41:56.063Z,99.90
2022-09-24T00:44:44.828Z,99.90
2022-09-24T00:47:49.970Z,99.90
2022-09-24T00:50:22.334Z,99.90
2022-09-24T00:53:03.576Z,99.90
2022-09-24T00:55:33.745Z,99.90
2022-09-24T00:58:05.936Z,99.90
2022-09-24T01:00:34.665Z,99.90
2022-09-24T01:03:09.359Z,99.90
2022-09-24T01:05:37.941Z,99.90
2022-09-24T01:08:07.256Z,99.90
2022-09-24T01:10:47.966Z,99.90
2022-09-24T01:13:48.296Z,99.90
2022-09-24T01:16:35.166Z,99.90
2022-09-24T01:19:39.945Z,99.90
2022-09-24T01:22:34.941Z,99.90
2022-09-24T01:25:26.438Z,99.90
2022-09-24T01:28:32.024Z,99.90
2022-09-24T01:31:10.865Z,99.90
2022-09-24T01:33:38.314Z,99.90
2022-09-24T01:36:08.482Z,99.90
2022-09-24T01:38:42.489Z,99.90
2022-09-24T01:41:12.183Z,99.90
2022-09-24T01:43:39.889Z,99.90
2022-09-24T01:46:08.158Z,99.90
2022-09-24T01:48:40.074Z,99.90
2022-09-24T01:51:16.448Z,99.90
2022-09-24T01:53:49.537Z,99.90
2022-09-24T01:56:28.790Z,99.90
2022-09-24T01:59:04.119Z,99.90
2022-09-24T02:02:02.117Z,99.90
2022-09-24T02:04:33.909Z,99.90
2022-09-24T02:07:05.350Z,99.90
2022-09-24T02:09:34.239Z,99.90
2022-09-24T02:12:17.276Z,99.90
2022-09-24T02:14:57.248Z,99.90
2022-09-24T02:17:27.638Z,99.90
2022-09-24T02:19:58.875Z,99.90
2022-09-24T02:22:26.568Z,99.90
2022-09-24T02:24:57.948Z,99.90
2022-09-24T02:27:28.965Z,99.90
2022-09-24T02:29:58.720Z,99.90
2022-09-24T02:32:30.523Z,99.90
2022-09-24T02:35:03.128Z,99.90
2022-09-24T02:37:36.188Z,99.90
2022-09-24T02:40:07.376Z,99.90
2022-09-24T02:42:35.192Z,99.90
2022-09-24T02:45:04.479Z,99.90
2022-09-24T02:47:33.169Z,99.90
2022-09-24T02:50:00.896Z,99.90
2022-09-24T02:52:28.470Z,99.90
2022-09-24T02:54:55.947Z,99.90
2022-09-24T02:57:23.403Z,99.90
2022-09-24T02:59:50.919Z,99.90
2022-09-24T03:02:19.592Z,99.90
2022-09-24T03:04:47.162Z,99.90
2022-09-24T03:07:14.738Z,99.90
2022-09-24T03:09:42.351Z,99.90
2022-09-24T03:12:09.894Z,99.90
2022-09-24T03:14:37.355Z,99.90
2022-09-24T03:17:04.792Z,99.90
2022-09-24T03:19:32.245Z,99.90
2022-09-24T03:21:59.948Z,99.90
2022-09-24T03:24:27.580Z,99.90
2022-09-24T03:26:55.058Z,99.90
2022-09-24T03:29:42.454Z,99.90
2022-09-24T03:32:09.964Z,99.90
2022-09-24T03:34:37.718Z,99.90
2022-09-24T03:37:05.171Z,99.90
2022-09-24T03:39:32.621Z,99.90
2022-09-24T03:42:00.144Z,99.90
2022-09-24T03:44:28.596Z,99.90
2022-09-24T03:46:56.869Z,99.90
2022-09-24T03:49:25.801Z,99.90
2022-09-24T03:51:53.290Z,99.90
2022-09-24T03:54:20.763Z,99.90
2022-09-24T03:56:48.217Z,99.90
2022-09-24T03:59:15.734Z,99.90
2022-09-24T04:01:43.266Z,99.90
2022-09-24T04:04:16.175Z,99.90
2022-09-24T04:06:44.719Z,99.90
2022-09-24T04:09:12.130Z,99.90
2022-09-24T04:11:39.727Z,99.90
2022-09-24T04:14:07.324Z,99.90
2022-09-24T04:16:34.893Z,99.90
2022-09-24T04:19:02.557Z,99.90
2022-09-24T04:21:30.338Z,99.90
2022-09-24T04:23:57.816Z,99.90
2022-09-24T04:26:25.769Z,99.90
2022-09-24T04:28:53.203Z,99.90
2022-09-24T04:31:21.092Z,99.90
2022-09-24T04:33:48.634Z,99.90
2022-09-24T04:36:16.740Z,99.90
2022-09-24T04:38:46.276Z,99.90
2022-09-24T04:41:15.966Z,99.90
2022-09-24T04:43:46.622Z,99.90
2022-09-24T04:46:14.474Z,99.90
2022-09-24T04:48:41.934Z,99.90
2022-09-24T04:51:10.578Z,99.90
2022-09-24T04:53:38.033Z,99.90
2022-09-24T04:56:11.237Z,99.90
2022-09-24T04:58:39.274Z,99.90
2022-09-24T05:01:07.336Z,99.90
2022-09-24T05:03:35.563Z,99.90
2022-09-24T05:06:02.984Z,99.90
2022-09-24T05:08:30.323Z,99.90
2022-09-24T05:10:57.784Z,99.90
2022-09-24T05:13:25.369Z,99.90
2022-09-24T05:15:52.800Z,99.90
2022-09-24T05:18:20.284Z,99.90
2022-09-24T05:20:48.168Z,99.90
2022-09-24T05:23:15.899Z,99.90
2022-09-24T05:26:03.692Z,99.90
2022-09-24T05:28:35.224Z,99.90
2022-09-24T05:31:02.879Z,99.90
2022-09-24T05:33:30.415Z,99.90
2022-09-24T05:35:57.975Z,99.90
2022-09-24T05:38:25.553Z,99.90
2022-09-24T05:40:53.088Z,99.90
2022-09-24T05:43:20.703Z,99.90
2022-09-24T05:45:52.608Z,99.90
2022-09-24T05:48:21.312Z,99.90
2022-09-24T05:50:48.719Z,99.90
2022-09-24T05:53:16.163Z,99.90
2022-09-24T05:55:44.054Z,99.90
2022-09-24T05:58:12.978Z,99.90
2022-09-24T06:00:40.422Z,99.90
2022-09-24T06:03:12.861Z,99.90
2022-09-24T06:05:48.663Z,99.90
2022-09-24T06:08:17.799Z,99.90
2022-09-24T06:10:47.183Z,99.90
2022-09-24T06:13:18.858Z,99.90
2022-09-24T06:15:47.047Z,99.90
2022-09-24T06:18:14.616Z,99.90
2022-09-24T06:20:42.179Z,99.90
2022-09-24T06:23:09.845Z,99.90
2022-09-24T06:25:37.446Z,99.90
2022-09-24T06:28:05.540Z,99.90
2022-09-24T06:30:41.363Z,99.90
2022-09-24T06:33:12.145Z,99.90
2022-09-24T06:35:42.103Z,99.90
2022-09-24T06:38:12.904Z,99.90
2022-09-24T06:40:41.198Z,99.90
2022-09-24T06:43:10.780Z,99.90
2022-09-24T06:45:38.403Z,99.90
2022-09-24T06:48:06.481Z,99.90
2022-09-24T06:50:35.416Z,99.90
2022-09-24T06:53:06.199Z,99.90
2022-09-24T06:55:35.001Z,99.90
2022-09-24T06:58:08.486Z,99.90
2022-09-24T07:00:36.942Z,99.90
2022-09-24T07:03:05.638Z,99.90
2022-09-24T07:05:35.482Z,99.90
2022-09-24T07:08:04.759Z,99.90
2022-09-24T07:10:32.249Z,99.90
2022-09-24T07:12:59.834Z,99.90
2022-09-24T07:15:27.328Z,99.90
2022-09-24T07:17:56.177Z,99.90
2022-09-24T07:20:25.007Z,99.90
2022-09-24T07:22:55.928Z,99.90
2022-09-24T07:25:23.812Z,99.90
2022-09-24T07:27:51.444Z,99.90
2022-09-24T07:30:19.003Z,99.90
2022-09-24T07:32:46.495Z,99.90
2022-09-24T07:35:14.128Z,99.90
2022-09-24T07:37:41.605Z,99.90
2022-09-24T07:40:10.109Z,99.90
2022-09-24T07:42:39.071Z,99.90
2022-09-24T07:45:11.457Z,99.90
2022-09-24T07:47:57.738Z,99.90
2022-09-24T07:50:25.518Z,99.90
2022-09-24T07:52:54.195Z,99.90
2022-09-24T07:55:22.647Z,99.90
2022-09-24T07:57:52.380Z,99.90
2022-09-24T08:00:21.627Z,99.90
2022-09-24T08:02:50.111Z,99.90
2022-09-24T08:05:18.061Z,99.90
2022-09-24T08:07:53.643Z,99.90
2022-09-24T08:10:22.030Z,99.90
2022-09-24T08:12:49.633Z,99.90
2022-09-24T08:15:17.497Z,99.90
2022-09-24T08:17:44.979Z,99.90
2022-09-24T08:20:12.525Z,99.90
2022-09-24T08:22:40.151Z,99.90
2022-09-24T08:25:08.158Z,99.90
2022-09-24T08:27:38.849Z,99.90
2022-09-24T08:30:07.337Z,99.90
2022-09-24T08:32:35.000Z,99.90
2022-09-24T08:35:03.034Z,99.90
2022-09-24T08:37:31.601Z,99.90
2022-09-24T08:39:59.328Z,99.90
2022-09-24T08:42:49.403Z,99.90
2022-09-24T08:45:36.589Z,99.90
2022-09-24T08:48:19.304Z,99.90
2022-09-24T08:51:00.825Z,99.90
2022-09-24T08:53:50.002Z,99.90
2022-09-24T08:56:25.931Z,99.90
2022-09-24T08:59:10.399Z,99.90
2022-09-24T09:01:55.290Z,99.90
2022-09-24T09:04:55.730Z,99.90
2022-09-24T09:07:44.903Z,99.90
2022-09-24T09:10:17.871Z,99.90
2022-09-24T09:12:48.891Z,99.90
2022-09-24T09:15:29.629Z,99.90
2022-09-24T09:18:12.942Z,99.90
2022-09-24T09:20:43.164Z,99.90
2022-09-24T09:23:19.551Z,99.90
2022-09-24T09:25:53.110Z,99.90
2022-09-24T09:28:21.243Z,99.90
2022-09-24T09:31:08.318Z,99.90
2022-09-24T09:33:59.763Z,99.90
2022-09-24T09:36:49.467Z,99.90
2022-09-24T09:39:39.202Z,99.90
2022-09-24T09:42:32.018Z,99.90
2022-09-24T09:45:15.199Z,99.90
2022-09-24T09:47:54.032Z,99.90
2022-09-24T09:50:33.145Z,99.90
2022-09-24T09:53:02.038Z,99.90
2022-09-24T09:55:35.449Z,99.90
2022-09-24T09:58:33.424Z,99.90
2022-09-24T10:01:18.239Z,99.90
2022-09-24T10:03:51.854Z,99.90
2022-09-24T10:06:32.109Z,99.90
2022-09-24T10:09:24.286Z,99.90
2022-09-24T10:11:54.411Z,99.90
2022-09-24T10:16:54.808Z,99.90
2022-09-24T10:19:25.017Z,99.90
2022-09-24T10:21:54.848Z,99.90
2022-09-24T10:24:25.307Z,99.90
2022-09-24T10:26:53.916Z,99.90
2022-09-24T10:29:46.994Z,99.90
2022-09-24T10:32:26.768Z,99.90
2022-09-24T10:34:58.412Z,99.90
2022-09-24T10:37:26.452Z,99.90
2022-09-24T10:40:01.984Z,99.90
2022-09-24T10:42:31.017Z,99.90
2022-09-24T10:45:03.478Z,99.90
2022-09-24T10:47:48.707Z,99.90
2022-09-24T10:50:29.458Z,99.90
2022-09-24T10:53:33.186Z,99.90
2022-09-24T10:56:02.046Z,99.90
2022-09-24T10:58:33.234Z,99.90
2022-09-24T11:01:12.710Z,99.90
2022-09-24T11:04:20.189Z,99.90
2022-09-24T11:07:25.073Z,99.90
2022-09-24T11:10:01.754Z,99.80
2022-09-24T11:12:38.263Z,99.90
2022-09-24T11:15:20.209Z,99.90
2022-09-24T11:18:32.079Z,99.10
2022-09-24T11:21:25.377Z,98.10
2022-09-24T11:23:58.669Z,98.20
2022-09-24T11:29:27.019Z,96.50
2022-09-24T11:32:16.299Z,96.70
2022-09-24T11:34:50.584Z,95.70
2022-09-24T11:37:39.227Z,95.90
2022-09-24T11:40:28.391Z,94.70
2022-09-24T11:43:13.124Z,95.30
2022-09-24T11:45:52.657Z,94.80
2022-09-24T11:48:57.326Z,95.20
2022-09-24T11:51:56.553Z,94.60
2022-09-24T11:54:26.830Z,93.80
2022-09-24T11:57:45.857Z,93.20
2022-09-24T12:00:20.225Z,93.10
2022-09-24T12:03:10.646Z,93.80
2022-09-24T12:05:44.865Z,94.40
2022-09-24T12:08:20.813Z,94.00
2022-09-24T12:11:28.163Z,94.10
2022-09-24T12:14:13.727Z,93.00
2022-09-24T12:16:44.385Z,93.00
2022-09-24T12:19:17.746Z,93.20
2022-09-24T12:21:48.540Z,93.30
2022-09-24T12:24:30.317Z,92.90
2022-09-24T12:27:01.493Z,93.00
2022-09-24T12:29:53.776Z,93.00
2022-09-24T12:32:55.934Z,91.50
2022-09-24T12:35:48.264Z,91.80
2022-09-24T12:38:23.765Z,92.00
2022-09-24T12:41:12.383Z,91.80
2022-09-24T12:43:50.428Z,91.50
2022-09-24T12:46:20.310Z,90.70
2022-09-24T12:48:49.610Z,89.40
2022-09-24T12:51:22.288Z,90.50
2022-09-24T12:54:27.485Z,90.80
2022-09-24T12:57:25.249Z,90.70
2022-09-24T12:59:54.748Z,90.20
2022-09-24T13:02:24.689Z,90.40
2022-09-24T13:05:27.158Z,90.50
2022-09-24T13:08:01.816Z,87.60
2022-09-24T13:10:35.641Z,87.10
2022-09-24T13:13:35.315Z,88.10
2022-09-24T13:16:17.390Z,87.80
2022-09-24T13:18:54.262Z,86.70
2022-09-24T13:21:27.343Z,86.50
2022-09-24T13:23:55.844Z,88.70
2022-09-24T13:26:26.418Z,87.30
2022-09-24T13:29:00.699Z,87.00
2022-09-24T13:31:30.579Z,87.90
2022-09-24T13:34:18.109Z,87.10
2022-09-24T13:36:57.782Z,87.00
2022-09-24T13:39:56.341Z,87.10
2022-09-24T13:42:46.302Z,85.20
2022-09-24T13:45:22.656Z,87.10
2022-09-24T13:48:06.366Z,86.90
2022-09-24T13:50:38.409Z,86.90
2022-09-24T13:53:12.979Z,86.90
2022-09-24T13:55:46.693Z,85.30
2022-09-24T13:58:47.280Z,84.50
2022-09-24T14:01:22.770Z,83.90
2022-09-24T14:03:57.421Z,83.30
2022-09-24T14:06:42.574Z,84.10
2022-09-24T14:09:22.123Z,84.00
2022-09-24T14:11:52.257Z,84.40
2022-09-24T14:14:22.123Z,83.90
2022-09-24T14:16:52.110Z,85.50
2022-09-24T14:19:25.154Z,83.80
2022-09-24T14:21:56.613Z,83.70
2022-09-24T14:24:42.393Z,84.10
2022-09-24T14:27:15.615Z,85.10
2022-09-24T14:29:47.930Z,85.90
2022-09-24T14:32:31.917Z,86.90
2022-09-24T14:35:03.738Z,87.30
2022-09-24T14:37:38.371Z,87.70
2022-09-24T14:40:17.090Z,87.80
2022-09-24T14:42:59.009Z,88.00
2022-09-24T14:45:38.065Z,87.80
2022-09-24T14:48:28.844Z,87.80
2022-09-24T14:50:57.081Z,88.00
2022-09-24T14:53:36.226Z,88.40
2022-09-24T14:56:20.637Z,88.50
2022-09-24T14:58:48.812Z,88.30
2022-09-24T15:01:19.315Z,88.80
2022-09-24T15:04:18.084Z,89.00
2022-09-24T15:06:48.218Z,89.20
2022-09-24T15:09:31.406Z,89.10
2022-09-24T15:12:09.928Z,89.50
2022-09-24T15:14:37.580Z,88.90
2022-09-24T15:17:10.794Z,89.10
2022-09-24T15:19:43.040Z,87.30
2022-09-24T15:22:10.946Z,86.60
2022-09-24T15:24:38.574Z,86.60
2022-09-24T15:27:37.235Z,87.30
2022-09-24T15:30:07.847Z,88.20
2022-09-24T15:32:36.197Z,88.80
2022-09-24T15:35:08.402Z,89.40
2022-09-24T15:37:39.334Z,89.20
2022-09-24T15:40:30.930Z,89.50
2022-09-24T15:42:58.372Z,90.00
2022-09-24T15:45:26.164Z,89.70
2022-09-24T15:47:54.551Z,90.00
2022-09-24T15:50:22.903Z,89.90
2022-09-24T15:53:01.947Z,89.10
2022-09-24T15:55:30.911Z,89.60
2022-09-24T15:57:58.331Z,89.10
2022-09-24T16:00:25.874Z,89.80
2022-09-24T16:02:56.421Z,89.50
2022-09-24T16:05:24.925Z,89.10
2022-09-24T16:07:52.386Z,89.10
2022-09-24T16:10:20.409Z,88.80
2022-09-24T16:12:47.889Z,89.20
2022-09-24T16:15:16.172Z,88.40
2022-09-24T16:17:43.854Z,89.10
2022-09-24T16:20:11.295Z,88.80
2022-09-24T16:22:38.974Z,88.90
2022-09-24T16:25:06.903Z,89.20
2022-09-24T16:27:35.337Z,89.60
2022-09-24T16:30:04.536Z,89.70
2022-09-24T16:32:32.193Z,90.00
2022-09-24T16:35:00.033Z,90.10
2022-09-24T16:37:27.650Z,90.30
2022-09-24T16:39:56.046Z,90.60
2022-09-24T16:42:26.391Z,90.40
2022-09-24T16:44:54.304Z,90.70
2022-09-24T16:47:22.437Z,91.10
2022-09-24T16:49:50.225Z,90.60
2022-09-24T16:52:17.768Z,91.10
2022-09-24T16:54:45.601Z,91.30
2022-09-24T16:57:13.297Z,91.00
2022-09-24T16:59:40.815Z,90.80
2022-09-24T17:02:12.245Z,90.70
2022-09-24T17:04:39.905Z,90.50
2022-09-24T17:07:07.445Z,90.70
2022-09-24T17:09:53.681Z,90.80
2022-09-24T17:12:21.697Z,90.90
2022-09-24T17:14:49.255Z,90.80
2022-09-24T17:17:16.919Z,91.00
2022-09-24T17:19:44.937Z,91.10
2022-09-24T17:22:12.790Z,91.20
2022-09-24T17:24:40.352Z,91.40
2022-09-24T17:27:08.292Z,91.50
2022-09-24T17:29:36.061Z,91.70
2022-09-24T17:32:04.125Z,92.00
2022-09-24T17:34:31.702Z,92.20
2022-09-24T17:36:59.810Z,92.40
2022-09-24T17:39:27.926Z,92.70
2022-09-24T17:41:55.389Z,93.00
2022-09-24T17:44:22.817Z,93.40
2022-09-24T17:46:50.374Z,93.50
2022-09-24T17:49:18.035Z,93.70
2022-09-24T17:51:46.518Z,93.80
2022-09-24T17:54:15.854Z,94.00
2022-09-24T17:56:43.308Z,94.20
2022-09-24T17:59:12.411Z,94.30
2022-09-24T18:01:42.888Z,94.40
2022-09-24T18:04:13.319Z,94.60
2022-09-24T18:06:42.504Z,94.40
2022-09-24T18:09:12.979Z,94.50
2022-09-24T18:11:43.758Z,94.50
2022-09-24T18:14:14.873Z,94.70
2022-09-24T18:16:42.950Z,94.80
2022-09-24T18:19:12.744Z,94.80
2022-09-24T18:21:40.468Z,94.90
2022-09-24T18:24:09.459Z,95.00
2022-09-24T18:26:39.348Z,95.00
2022-09-24T18:29:19.789Z,95.10
2022-09-24T18:31:47.930Z,95.10
2022-09-24T18:34:17.165Z,95.20
2022-09-24T18:36:47.778Z,95.50
2022-09-24T18:39:21.877Z,95.70
2022-09-24T18:41:52.866Z,95.70
2022-09-24T18:44:20.409Z,96.00
2022-09-24T18:46:48.019Z,96.10
2022-09-24T18:49:16.147Z,96.20
2022-09-24T18:51:44.004Z,96.20
2022-09-24T18:54:13.464Z,96.20
2022-09-24T18:56:41.198Z,96.10
2022-09-24T18:59:19.058Z,95.80
2022-09-24T19:01:48.695Z,95.70
2022-09-24T19:04:17.340Z,95.60
2022-09-24T19:06:48.025Z,95.60
2022-09-24T19:09:17.396Z,95.60
2022-09-24T19:11:45.713Z,95.60
2022-09-24T19:14:14.906Z,95.80
2022-09-24T19:16:42.842Z,95.80
2022-09-24T19:19:11.385Z,96.00
2022-09-24T19:21:39.225Z,96.20
2022-09-24T19:24:07.290Z,96.20
2022-09-24T19:26:37.865Z,96.20
2022-09-24T19:29:08.914Z,96.30
2022-09-24T19:31:42.436Z,96.60
2022-09-24T19:34:12.833Z,96.70
2022-09-24T19:36:44.828Z,96.70
2022-09-24T19:39:15.792Z,96.70
2022-09-24T19:41:43.571Z,96.80
2022-09-24T19:44:11.496Z,96.90
2022-09-24T19:46:40.223Z,96.90
2022-09-24T19:49:07.999Z,96.90
2022-09-24T19:51:38.029Z,97.10
2022-09-24T19:54:07.757Z,97.00
2022-09-24T19:56:36.896Z,97.20
2022-09-24T20:01:33.718Z,97.10
2022-09-24T20:04:04.338Z,97.10
2022-09-24T20:06:33.997Z,97.20
2022-09-24T20:11:32.383Z,97.30
2022-09-24T20:14:01.081Z,97.40
2022-09-24T20:16:31.009Z,97.50
2022-09-24T20:18:59.157Z,98.20
2022-09-24T20:21:29.026Z,97.90
2022-09-24T20:23:57.811Z,97.90
2022-09-24T20:26:44.874Z,98.00
2022-09-24T20:29:16.209Z,98.10
2022-09-24T20:31:52.187Z,98.30
2022-09-24T20:34:22.763Z,98.30
2022-09-24T20:36:50.850Z,98.50
2022-09-24T20:44:14.590Z,98.60
2022-09-24T20:49:23.914Z,98.70
2022-09-24T20:51:56.978Z,99.20
2022-09-24T20:54:26.586Z,99.10
2022-09-24T20:56:54.034Z,99.20
2022-09-24T20:59:24.217Z,99.70
2022-09-24T21:01:51.841Z,99.80
2022-09-24T21:04:20.336Z,99.90
2022-09-24T21:06:48.957Z,99.80
2022-09-24T21:09:19.663Z,99.90
2022-09-24T21:11:50.339Z,99.90
2022-09-24T21:14:18.545Z,99.90
2022-09-24T21:16:46.712Z,99.90
2022-09-24T21:19:15.279Z,99.90
2022-09-24T21:21:42.715Z,99.90
2022-09-24T21:24:13.826Z,99.90
2022-09-24T21:26:42.375Z,99.90
2022-09-24T21:29:18.337Z,99.90
2022-09-24T21:31:47.479Z,99.90
2022-09-24T21:34:17.331Z,99.90
2022-09-24T21:36:45.734Z,99.90
2022-09-24T21:39:19.122Z,99.90
2022-09-24T21:41:51.333Z,99.90
2022-09-24T21:44:19.288Z,99.90
2022-09-24T21:46:47.897Z,99.90
2022-09-24T21:49:19.082Z,99.90
2022-09-24T21:51:46.959Z,99.90
2022-09-24T21:54:17.101Z,99.90
2022-09-24T21:56:45.479Z,99.90
2022-09-24T21:59:31.804Z,99.90
2022-09-24T22:01:59.693Z,99.90
2022-09-24T22:04:27.812Z,99.90
2022-09-24T22:06:55.407Z,99.90
2022-09-24T22:09:24.702Z,99.90
2022-09-24T22:11:52.903Z,99.90
2022-09-24T22:14:20.309Z,99.90
2022-09-24T22:16:47.834Z,99.90
2022-09-24T22:19:15.308Z,99.90
2022-09-24T22:21:42.817Z,99.90
2022-09-24T22:24:10.672Z,99.90
2022-09-24T22:26:38.514Z,99.90
2022-09-24T22:29:06.099Z,99.90
2022-09-24T22:31:34.238Z,99.90
2022-09-24T22:34:21.846Z,99.90
2022-09-24T22:36:49.205Z,99.90
2022-09-24T22:39:16.841Z,99.90
2022-09-24T22:41:44.251Z,99.90
2022-09-24T22:44:12.271Z,99.90
2022-09-24T22:46:41.741Z,99.90
2022-09-24T22:49:10.751Z,99.90
2022-09-24T22:51:40.101Z,99.90
2022-09-24T22:54:09.672Z,99.90
2022-09-24T22:59:05.582Z,99.90
2022-09-24T23:01:41.334Z,99.90
2022-09-24T23:04:10.548Z,99.90
2022-09-24T23:06:38.613Z,99.90
2022-09-24T23:09:06.154Z,99.90
2022-09-24T23:11:35.284Z,99.90
2022-09-24T23:14:05.551Z,99.90
2022-09-24T23:16:35.635Z,99.90
2022-09-24T23:19:06.285Z,99.90
2022-09-24T23:21:34.348Z,99.90
2022-09-24T23:24:05.925Z,99.90
2022-09-24T23:26:33.458Z,99.90
2022-09-24T23:29:01.670Z,99.90
2022-09-24T23:31:30.402Z,99.90
2022-09-24T23:33:59.619Z,99.90
2022-09-24T23:36:30.934Z,99.90
2022-09-24T23:39:00.231Z,99.90
2022-09-24T23:41:29.884Z,99.90
2022-09-24T23:43:58.183Z,99.90
2022-09-24T23:46:25.692Z,99.90
2022-09-24T23:48:53.254Z,99.90
2022-09-24T23:51:20.771Z,99.90
2022-09-24T23:53:48.312Z,99.90
2022-09-24T23:56:16.104Z,99.90
2022-09-24T23:58:43.599Z,99.90
